sensor_id;sensor_type;location;lat;lon;timestamp;pressure;altitude;pressure_sealevel;temperature;humidity
29247;BME280;16272;48.188;9.964;2023-03-24T00:00:13;95085.81;;;10.58;71.08
29247;BME280;16272;48.188;9.964;2023-03-24T00:02:40;95081.75;;;10.79;70.15
29247;BME280;16272;48.188;9.964;2023-03-24T00:05:15;95072.47;;;10.83;69.35
29247;BME280;16272;48.188;9.964;2023-03-24T00:07:41;95088.25;;;10.76;69.65
29247;BME280;16272;48.188;9.964;2023-03-24T00:10:18;95085.19;;;11.04;68.77
29247;BME280;16272;48.188;9.964;2023-03-24T00:12:45;95094.06;;;11.19;68.30
29247;BME280;16272;48.188;9.964;2023-03-24T00:15:16;95100.81;;;10.99;68.84
29247;BME280;16272;48.188;9.964;2023-03-24T00:17:43;95103.75;;;11.12;68.92
29247;BME280;16272;48.188;9.964;2023-03-24T00:20:12;95109.69;;;10.66;71.21
29247;BME280;16272;48.188;9.964;2023-03-24T00:22:51;95121.88;;;11.09;69.50
29247;BME280;16272;48.188;9.964;2023-03-24T00:25:22;95121.09;;;10.83;70.03
29247;BME280;16272;48.188;9.964;2023-03-24T00:27:49;95112.88;;;10.37;71.19
29247;BME280;16272;48.188;9.964;2023-03-24T00:30:16;95107.88;;;10.59;73.25
29247;BME280;16272;48.188;9.964;2023-03-24T00:32:43;95094.19;;;10.87;71.32
29247;BME280;16272;48.188;9.964;2023-03-24T00:35:10;95105.63;;;11.03;68.87
29247;BME280;16272;48.188;9.964;2023-03-24T00:37:37;95106.16;;;11.30;67.88
29247;BME280;16272;48.188;9.964;2023-03-24T00:40:09;95104.03;;;11.26;68.62
29247;BME280;16272;48.188;9.964;2023-03-24T00:42:37;95098.81;;;10.93;70.09
29247;BME280;16272;48.188;9.964;2023-03-24T00:45:05;95094.53;;;10.83;70.26
29247;BME280;16272;48.188;9.964;2023-03-24T00:47:31;95088.13;;;11.09;69.12
29247;BME280;16272;48.188;9.964;2023-03-24T00:50:02;95080.47;;;11.14;69.32
29247;BME280;16272;48.188;9.964;2023-03-24T00:52:28;95083.84;;;11.00;69.57
29247;BME280;16272;48.188;9.964;2023-03-24T00:54:58;95081.28;;;11.15;68.53
29247;BME280;16272;48.188;9.964;2023-03-24T00:57:27;95074.94;;;10.84;71.40
29247;BME280;16272;48.188;9.964;2023-03-24T00:59:55;95074.75;;;10.94;72.17
29247;BME280;16272;48.188;9.964;2023-03-24T01:02:23;95070.31;;;10.78;71.32
29247;BME280;16272;48.188;9.964;2023-03-24T01:04:53;95075.44;;;10.88;70.75
29247;BME280;16272;48.188;9.964;2023-03-24T01:07:23;95074.28;;;10.91;72.09
29247;BME280;16272;48.188;9.964;2023-03-24T01:09:49;95071.84;;;10.64;72.18
29247;BME280;16272;48.188;9.964;2023-03-24T01:12:30;95072.72;;;10.24;75.98
29247;BME280;16272;48.188;9.964;2023-03-24T01:15:00;95067.41;;;10.40;74.47
29247;BME280;16272;48.188;9.964;2023-03-24T01:17:31;95058.78;;;10.22;76.31
29247;BME280;16272;48.188;9.964;2023-03-24T01:20:01;95052.16;;;10.18;77.27
29247;BME280;16272;48.188;9.964;2023-03-24T01:22:33;95043.88;;;9.80;79.22
29247;BME280;16272;48.188;9.964;2023-03-24T01:25:03;95047.50;;;9.70;81.43
29247;BME280;16272;48.188;9.964;2023-03-24T01:27:30;95046.84;;;9.93;79.62
29247;BME280;16272;48.188;9.964;2023-03-24T01:30:00;95044.53;;;9.98;79.21
29247;BME280;16272;48.188;9.964;2023-03-24T01:32:30;95038.06;;;10.09;78.23
29247;BME280;16272;48.188;9.964;2023-03-24T01:34:55;95033.25;;;9.96;77.88
29247;BME280;16272;48.188;9.964;2023-03-24T01:37:20;95030.94;;;10.34;75.54
29247;BME280;16272;48.188;9.964;2023-03-24T01:39:48;95040.06;;;10.23;76.04
29247;BME280;16272;48.188;9.964;2023-03-24T01:42:20;95017.03;;;9.83;79.07
29247;BME280;16272;48.188;9.964;2023-03-24T01:44:49;95015.34;;;9.98;77.68
29247;BME280;16272;48.188;9.964;2023-03-24T01:47:15;95014.63;;;10.45;76.35
29247;BME280;16272;48.188;9.964;2023-03-24T01:49:51;95011.94;;;10.62;73.42
29247;BME280;16272;48.188;9.964;2023-03-24T01:52:21;95013.00;;;10.92;73.21
29247;BME280;16272;48.188;9.964;2023-03-24T01:54:52;95013.13;;;10.59;74.46
29247;BME280;16272;48.188;9.964;2023-03-24T01:57:23;95001.19;;;10.47;74.87
29247;BME280;16272;48.188;9.964;2023-03-24T01:59:53;95005.44;;;10.00;76.23
29247;BME280;16272;48.188;9.964;2023-03-24T02:02:19;94999.38;;;10.39;73.18
29247;BME280;16272;48.188;9.964;2023-03-24T02:04:59;94997.06;;;10.36;74.09
29247;BME280;16272;48.188;9.964;2023-03-24T02:07:57;94994.78;;;10.17;75.08
29247;BME280;16272;48.188;9.964;2023-03-24T02:10:26;94991.13;;;10.09;75.31
29247;BME280;16272;48.188;9.964;2023-03-24T02:12:54;94991.81;;;9.87;75.88
29247;BME280;16272;48.188;9.964;2023-03-24T02:15:20;94982.88;;;9.88;76.99
29247;BME280;16272;48.188;9.964;2023-03-24T02:29:35;94962.22;;;10.31;75.01
29247;BME280;16272;48.188;9.964;2023-03-24T02:37:41;94961.78;;;10.67;72.46
29247;BME280;16272;48.188;9.964;2023-03-24T02:40:33;94969.25;;;10.72;72.39
29247;BME280;16272;48.188;9.964;2023-03-24T02:43:05;94960.38;;;10.88;70.59
29247;BME280;16272;48.188;9.964;2023-03-24T02:45:59;94962.19;;;10.47;73.99
29247;BME280;16272;48.188;9.964;2023-03-24T02:48:37;94965.47;;;10.66;74.03
29247;BME280;16272;48.188;9.964;2023-03-24T02:51:39;94967.22;;;10.26;74.08
29247;BME280;16272;48.188;9.964;2023-03-24T02:54:14;94969.38;;;10.30;74.16
29247;BME280;16272;48.188;9.964;2023-03-24T02:56:56;94963.31;;;10.05;75.94
29247;BME280;16272;48.188;9.964;2023-03-24T02:59:35;94965.28;;;10.03;75.57
29247;BME280;16272;48.188;9.964;2023-03-24T03:02:18;94957.34;;;9.79;77.99
29247;BME280;16272;48.188;9.964;2023-03-24T03:04:47;94958.69;;;9.66;78.62
29247;BME280;16272;48.188;9.964;2023-03-24T03:07:17;94952.75;;;9.64;78.95
29247;BME280;16272;48.188;9.964;2023-03-24T03:10:02;94950.06;;;9.81;77.86
29247;BME280;16272;48.188;9.964;2023-03-24T03:12:32;94946.09;;;9.60;78.80
29247;BME280;16272;48.188;9.964;2023-03-24T03:15:02;94954.53;;;9.72;78.00
29247;BME280;16272;48.188;9.964;2023-03-24T03:17:35;94955.03;;;9.67;78.79
29247;BME280;16272;48.188;9.964;2023-03-24T03:20:08;94955.88;;;9.76;78.40
29247;BME280;16272;48.188;9.964;2023-03-24T03:22:48;94966.97;;;9.88;77.53
29247;BME280;16272;48.188;9.964;2023-03-24T03:25:20;94967.13;;;9.94;77.42
29247;BME280;16272;48.188;9.964;2023-03-24T03:27:47;94975.41;;;10.00;76.20
29247;BME280;16272;48.188;9.964;2023-03-24T03:30:17;94963.66;;;9.78;76.61
29247;BME280;16272;48.188;9.964;2023-03-24T03:32:50;94960.09;;;10.26;75.63
29247;BME280;16272;48.188;9.964;2023-03-24T03:35:24;94963.13;;;10.15;76.33
29247;BME280;16272;48.188;9.964;2023-03-24T03:38:20;94955.44;;;10.37;75.09
29247;BME280;16272;48.188;9.964;2023-03-24T03:40:54;94950.31;;;10.27;74.56
29247;BME280;16272;48.188;9.964;2023-03-24T03:43:24;94957.94;;;10.22;74.83
29247;BME280;16272;48.188;9.964;2023-03-24T03:45:50;94956.09;;;10.39;73.97
29247;BME280;16272;48.188;9.964;2023-03-24T03:48:18;94963.53;;;10.52;73.21
29247;BME280;16272;48.188;9.964;2023-03-24T03:50:44;94969.94;;;10.65;72.88
29247;BME280;16272;48.188;9.964;2023-03-24T03:53:14;94964.03;;;11.41;67.51
29247;BME280;16272;48.188;9.964;2023-03-24T03:55:41;94965.31;;;11.22;68.79
29247;BME280;16272;48.188;9.964;2023-03-24T03:58:07;94953.09;;;11.36;68.16
29247;BME280;16272;48.188;9.964;2023-03-24T04:00:34;94946.44;;;11.40;67.92
29247;BME280;16272;48.188;9.964;2023-03-24T04:03:31;94949.34;;;11.68;67.07
29247;BME280;16272;48.188;9.964;2023-03-24T04:06:09;94944.50;;;11.95;66.22
29247;BME280;16272;48.188;9.964;2023-03-24T04:08:48;94953.72;;;11.84;66.32
29247;BME280;16272;48.188;9.964;2023-03-24T04:11:25;94954.19;;;11.88;67.21
29247;BME280;16272;48.188;9.964;2023-03-24T04:23:03;94957.66;;;11.88;68.20
29247;BME280;16272;48.188;9.964;2023-03-24T04:25:47;94959.84;;;11.85;67.59
29247;BME280;16272;48.188;9.964;2023-03-24T04:28:33;94957.16;;;11.70;69.91
29247;BME280;16272;48.188;9.964;2023-03-24T04:31:41;94949.84;;;11.87;68.17
29247;BME280;16272;48.188;9.964;2023-03-24T04:34:26;94917.25;;;11.32;71.31
29247;BME280;16272;48.188;9.964;2023-03-24T04:37:17;94916.09;;;11.49;70.62
29247;BME280;16272;48.188;9.964;2023-03-24T04:39:45;94899.44;;;11.55;71.04
29247;BME280;16272;48.188;9.964;2023-03-24T04:42:21;94900.91;;;11.58;71.10
29247;BME280;16272;48.188;9.964;2023-03-24T04:44:48;94893.63;;;11.37;71.25
29247;BME280;16272;48.188;9.964;2023-03-24T04:47:19;94883.16;;;11.12;72.79
29247;BME280;16272;48.188;9.964;2023-03-24T04:49:45;94873.94;;;11.00;74.02
29247;BME280;16272;48.188;9.964;2023-03-24T04:52:10;94873.06;;;11.31;73.10
29247;BME280;16272;48.188;9.964;2023-03-24T04:54:36;94865.16;;;10.99;74.20
29247;BME280;16272;48.188;9.964;2023-03-24T04:57:02;94874.84;;;11.15;73.72
29247;BME280;16272;48.188;9.964;2023-03-24T04:59:30;94872.19;;;11.15;73.12
29247;BME280;16272;48.188;9.964;2023-03-24T05:01:59;94874.25;;;11.05;73.69
29247;BME280;16272;48.188;9.964;2023-03-24T05:04:26;94882.31;;;10.89;73.66
29247;BME280;16272;48.188;9.964;2023-03-24T05:06:53;94881.56;;;10.80;74.54
29247;BME280;16272;48.188;9.964;2023-03-24T05:09:20;94876.94;;;10.42;75.39
29247;BME280;16272;48.188;9.964;2023-03-24T05:11:46;94881.59;;;10.40;75.56
29247;BME280;16272;48.188;9.964;2023-03-24T05:14:12;94891.47;;;10.63;74.34
29247;BME280;16272;48.188;9.964;2023-03-24T05:16:38;94896.63;;;10.88;73.56
29247;BME280;16272;48.188;9.964;2023-03-24T05:19:04;94903.59;;;11.35;70.50
29247;BME280;16272;48.188;9.964;2023-03-24T05:21:29;94898.13;;;11.36;70.55
29247;BME280;16272;48.188;9.964;2023-03-24T05:23:55;94919.13;;;11.46;70.59
29247;BME280;16272;48.188;9.964;2023-03-24T05:26:20;94921.56;;;11.56;70.01
29247;BME280;16272;48.188;9.964;2023-03-24T05:28:46;94915.81;;;11.82;69.03
29247;BME280;16272;48.188;9.964;2023-03-24T05:31:11;94921.19;;;11.74;69.16
29247;BME280;16272;48.188;9.964;2023-03-24T05:33:37;94914.19;;;11.20;72.00
29247;BME280;16272;48.188;9.964;2023-03-24T05:36:02;94923.66;;;11.61;69.81
29247;BME280;16272;48.188;9.964;2023-03-24T05:38:29;94918.47;;;11.82;69.36
29247;BME280;16272;48.188;9.964;2023-03-24T05:43:22;94942.03;;;11.01;72.43
29247;BME280;16272;48.188;9.964;2023-03-24T05:45:49;94947.78;;;11.36;71.71
29247;BME280;16272;48.188;9.964;2023-03-24T05:48:16;94950.91;;;11.63;70.09
29247;BME280;16272;48.188;9.964;2023-03-24T05:50:42;94954.44;;;11.78;69.42
29247;BME280;16272;48.188;9.964;2023-03-24T05:53:07;94955.16;;;11.49;70.48
29247;BME280;16272;48.188;9.964;2023-03-24T05:55:34;94945.09;;;11.59;71.95
29247;BME280;16272;48.188;9.964;2023-03-24T05:58:02;94960.94;;;11.52;71.97
29247;BME280;16272;48.188;9.964;2023-03-24T06:00:32;94976.84;;;11.14;73.08
29247;BME280;16272;48.188;9.964;2023-03-24T06:03:01;94976.78;;;10.91;74.33
29247;BME280;16272;48.188;9.964;2023-03-24T06:05:27;94979.16;;;11.64;70.81
29247;BME280;16272;48.188;9.964;2023-03-24T06:07:52;94994.00;;;11.35;72.67
29247;BME280;16272;48.188;9.964;2023-03-24T06:10:24;94995.06;;;11.49;71.89
29247;BME280;16272;48.188;9.964;2023-03-24T06:12:51;94991.03;;;11.53;71.34
29247;BME280;16272;48.188;9.964;2023-03-24T06:15:18;94991.31;;;11.81;70.31
29247;BME280;16272;48.188;9.964;2023-03-24T06:17:45;94992.78;;;11.84;70.70
29247;BME280;16272;48.188;9.964;2023-03-24T06:20:12;94999.31;;;12.19;69.67
29247;BME280;16272;48.188;9.964;2023-03-24T06:22:43;94996.38;;;12.14;69.95
29247;BME280;16272;48.188;9.964;2023-03-24T06:25:13;94994.34;;;12.01;69.59
29247;BME280;16272;48.188;9.964;2023-03-24T06:27:44;95003.16;;;12.17;70.28
29247;BME280;16272;48.188;9.964;2023-03-24T06:30:14;94996.56;;;12.12;69.99
29247;BME280;16272;48.188;9.964;2023-03-24T06:32:41;95000.44;;;12.25;69.49
29247;BME280;16272;48.188;9.964;2023-03-24T06:35:10;94997.25;;;11.91;70.51
29247;BME280;16272;48.188;9.964;2023-03-24T06:37:36;94990.13;;;11.84;70.52
29247;BME280;16272;48.188;9.964;2023-03-24T06:40:02;95001.50;;;12.01;71.21
29247;BME280;16272;48.188;9.964;2023-03-24T06:42:28;95006.34;;;11.97;71.40
29247;BME280;16272;48.188;9.964;2023-03-24T06:44:54;95011.44;;;12.07;70.45
29247;BME280;16272;48.188;9.964;2023-03-24T06:47:21;95004.50;;;11.98;71.03
29247;BME280;16272;48.188;9.964;2023-03-24T06:49:46;95010.38;;;11.93;72.39
29247;BME280;16272;48.188;9.964;2023-03-24T06:52:12;95008.84;;;11.99;71.35
29247;BME280;16272;48.188;9.964;2023-03-24T06:54:37;95004.91;;;11.86;72.04
29247;BME280;16272;48.188;9.964;2023-03-24T06:57:02;95000.41;;;11.87;72.23
29247;BME280;16272;48.188;9.964;2023-03-24T06:59:28;95004.69;;;11.96;72.28
29247;BME280;16272;48.188;9.964;2023-03-24T07:01:54;94999.19;;;11.98;72.91
29247;BME280;16272;48.188;9.964;2023-03-24T07:04:20;94996.63;;;11.81;73.84
29247;BME280;16272;48.188;9.964;2023-03-24T07:06:46;95005.16;;;12.00;72.97
29247;BME280;16272;48.188;9.964;2023-03-24T07:09:12;95014.09;;;12.07;73.51
29247;BME280;16272;48.188;9.964;2023-03-24T07:11:38;95009.66;;;11.99;74.88
29247;BME280;16272;48.188;9.964;2023-03-24T07:14:03;95008.22;;;11.88;75.23
29247;BME280;16272;48.188;9.964;2023-03-24T07:16:29;95008.84;;;11.99;75.36
29247;BME280;16272;48.188;9.964;2023-03-24T07:18:55;95001.97;;;11.81;75.25
29247;BME280;16272;48.188;9.964;2023-03-24T07:21:20;95004.28;;;11.84;75.99
29247;BME280;16272;48.188;9.964;2023-03-24T07:23:46;95008.16;;;11.97;73.64
29247;BME280;16272;48.188;9.964;2023-03-24T07:26:11;95000.88;;;12.13;72.17
29247;BME280;16272;48.188;9.964;2023-03-24T07:28:37;95000.81;;;12.37;72.70
29247;BME280;16272;48.188;9.964;2023-03-24T07:31:04;95014.25;;;12.43;73.15
29247;BME280;16272;48.188;9.964;2023-03-24T07:33:31;95018.72;;;12.43;72.17
29247;BME280;16272;48.188;9.964;2023-03-24T07:35:56;95018.16;;;12.32;73.48
29247;BME280;16272;48.188;9.964;2023-03-24T07:38:23;95026.94;;;12.56;73.01
29247;BME280;16272;48.188;9.964;2023-03-24T07:40:48;95030.78;;;12.68;71.82
29247;BME280;16272;48.188;9.964;2023-03-24T07:43:14;95037.84;;;12.91;71.68
29247;BME280;16272;48.188;9.964;2023-03-24T07:45:39;95040.47;;;13.21;70.05
29247;BME280;16272;48.188;9.964;2023-03-24T07:48:05;95048.16;;;12.64;72.80
29247;BME280;16272;48.188;9.964;2023-03-24T07:50:31;95046.09;;;12.52;72.55
29247;BME280;16272;48.188;9.964;2023-03-24T07:52:57;95051.25;;;12.68;71.49
29247;BME280;16272;48.188;9.964;2023-03-24T07:55:22;95056.31;;;12.48;73.69
29247;BME280;16272;48.188;9.964;2023-03-24T07:57:49;95060.34;;;12.74;72.94
29247;BME280;16272;48.188;9.964;2023-03-24T08:00:16;95057.13;;;12.63;72.48
29247;BME280;16272;48.188;9.964;2023-03-24T08:02:50;95064.66;;;12.60;74.03
29247;BME280;16272;48.188;9.964;2023-03-24T08:05:19;95067.13;;;12.46;74.48
29247;BME280;16272;48.188;9.964;2023-03-24T08:07:48;95064.66;;;12.45;73.67
29247;BME280;16272;48.188;9.964;2023-03-24T08:10:22;95072.56;;;12.53;74.47
29247;BME280;16272;48.188;9.964;2023-03-24T08:12:49;95067.69;;;12.42;74.09
29247;BME280;16272;48.188;9.964;2023-03-24T08:15:18;95078.31;;;12.42;73.57
29247;BME280;16272;48.188;9.964;2023-03-24T08:17:49;95088.41;;;12.31;74.45
29247;BME280;16272;48.188;9.964;2023-03-24T08:20:18;95067.63;;;12.65;73.44
29247;BME280;16272;48.188;9.964;2023-03-24T08:22:49;95085.88;;;12.53;74.96
29247;BME280;16272;48.188;9.964;2023-03-24T08:25:21;95091.97;;;12.24;75.51
29247;BME280;16272;48.188;9.964;2023-03-24T08:27:48;95092.31;;;12.21;76.06
29247;BME280;16272;48.188;9.964;2023-03-24T08:30:19;95092.91;;;12.08;76.37
29247;BME280;16272;48.188;9.964;2023-03-24T08:32:48;95105.09;;;12.25;76.37
29247;BME280;16272;48.188;9.964;2023-03-24T08:35:25;95088.72;;;11.90;77.60
29247;BME280;16272;48.188;9.964;2023-03-24T08:37:51;95096.09;;;12.26;74.92
29247;BME280;16272;48.188;9.964;2023-03-24T08:40:20;95103.28;;;12.41;75.09
29247;BME280;16272;48.188;9.964;2023-03-24T08:42:50;95097.88;;;12.11;75.34
29247;BME280;16272;48.188;9.964;2023-03-24T08:45:18;95099.06;;;12.08;75.90
29247;BME280;16272;48.188;9.964;2023-03-24T08:47:46;95107.69;;;12.34;75.12
29247;BME280;16272;48.188;9.964;2023-03-24T08:50:12;95101.84;;;12.38;73.96
29247;BME280;16272;48.188;9.964;2023-03-24T08:52:38;95106.03;;;12.32;75.39
29247;BME280;16272;48.188;9.964;2023-03-24T08:55:04;95113.97;;;12.18;75.82
29247;BME280;16272;48.188;9.964;2023-03-24T08:57:31;95118.41;;;12.25;73.66
29247;BME280;16272;48.188;9.964;2023-03-24T08:59:56;95121.66;;;12.36;74.16
29247;BME280;16272;48.188;9.964;2023-03-24T09:02:21;95116.75;;;12.24;75.49
29247;BME280;16272;48.188;9.964;2023-03-24T09:04:47;95122.56;;;12.43;74.11
29247;BME280;16272;48.188;9.964;2023-03-24T09:07:13;95119.97;;;12.58;74.81
29247;BME280;16272;48.188;9.964;2023-03-24T09:09:40;95120.88;;;12.65;74.37
29247;BME280;16272;48.188;9.964;2023-03-24T09:12:06;95129.97;;;12.71;74.86
29247;BME280;16272;48.188;9.964;2023-03-24T09:14:32;95133.13;;;12.36;76.35
29247;BME280;16272;48.188;9.964;2023-03-24T09:16:58;95153.25;;;12.39;76.59
29247;BME280;16272;48.188;9.964;2023-03-24T09:19:23;95152.38;;;12.23;77.05
29247;BME280;16272;48.188;9.964;2023-03-24T09:21:49;95149.53;;;12.25;77.83
29247;BME280;16272;48.188;9.964;2023-03-24T09:24:15;95157.03;;;12.21;78.61
29247;BME280;16272;48.188;9.964;2023-03-24T09:26:41;95163.09;;;12.15;79.66
29247;BME280;16272;48.188;9.964;2023-03-24T09:29:06;95167.31;;;12.24;78.99
29247;BME280;16272;48.188;9.964;2023-03-24T09:31:32;95159.81;;;12.05;80.63
29247;BME280;16272;48.188;9.964;2023-03-24T09:33:58;95157.16;;;12.51;79.00
29247;BME280;16272;48.188;9.964;2023-03-24T09:36:25;95147.47;;;12.12;80.99
29247;BME280;16272;48.188;9.964;2023-03-24T09:38:50;95149.75;;;12.38;80.94
29247;BME280;16272;48.188;9.964;2023-03-24T09:41:18;95142.13;;;12.12;81.86
29247;BME280;16272;48.188;9.964;2023-03-24T09:43:55;95144.91;;;12.42;81.06
29247;BME280;16272;48.188;9.964;2023-03-24T09:46:33;95130.88;;;12.48;80.17
29247;BME280;16272;48.188;9.964;2023-03-24T09:49:01;95137.91;;;12.79;80.73
29247;BME280;16272;48.188;9.964;2023-03-24T09:51:29;95131.94;;;12.39;80.95
29247;BME280;16272;48.188;9.964;2023-03-24T09:54:19;95095.50;;;12.16;82.05
29247;BME280;16272;48.188;9.964;2023-03-24T09:56:47;95098.09;;;12.24;83.24
29247;BME280;16272;48.188;9.964;2023-03-24T09:59:36;95098.38;;;12.29;82.77
29247;BME280;16272;48.188;9.964;2023-03-24T10:02:10;95048.75;;;11.99;82.93
29247;BME280;16272;48.188;9.964;2023-03-24T10:04:36;95023.34;;;12.11;83.79
29247;BME280;16272;48.188;9.964;2023-03-24T10:09:39;95078.47;;;12.78;79.42
29247;BME280;16272;48.188;9.964;2023-03-24T10:12:29;95078.81;;;13.05;77.35
29247;BME280;16272;48.188;9.964;2023-03-24T10:17:55;95058.31;;;13.72;72.31
29247;BME280;16272;48.188;9.964;2023-03-24T10:23:19;95091.41;;;13.41;73.52
29247;BME280;16272;48.188;9.964;2023-03-24T10:28:52;95097.00;;;13.61;74.38
29247;BME280;16272;48.188;9.964;2023-03-24T10:31:36;95094.00;;;14.07;73.87
29247;BME280;16272;48.188;9.964;2023-03-24T10:34:07;95091.31;;;14.29;71.86
29247;BME280;16272;48.188;9.964;2023-03-24T10:36:34;95095.59;;;14.73;72.04
29247;BME280;16272;48.188;9.964;2023-03-24T10:39:05;95095.38;;;14.68;68.96
29247;BME280;16272;48.188;9.964;2023-03-24T10:41:31;95080.75;;;14.42;70.99
29247;BME280;16272;48.188;9.964;2023-03-24T10:43:57;95073.31;;;15.36;70.51
29247;BME280;16272;48.188;9.964;2023-03-24T10:46:26;95070.28;;;14.69;69.26
29247;BME280;16272;48.188;9.964;2023-03-24T10:51:35;95067.09;;;14.30;67.51
29247;BME280;16272;48.188;9.964;2023-03-24T10:54:11;95070.28;;;14.19;68.40
29247;BME280;16272;48.188;9.964;2023-03-24T10:56:42;95074.94;;;14.10;70.94
29247;BME280;16272;48.188;9.964;2023-03-24T10:59:22;95081.28;;;14.09;70.47
29247;BME280;16272;48.188;9.964;2023-03-24T11:04:40;95082.28;;;13.87;71.60
29247;BME280;16272;48.188;9.964;2023-03-24T11:07:21;95082.72;;;13.90;68.75
29247;BME280;16272;48.188;9.964;2023-03-24T11:10:04;95080.34;;;13.95;70.38
29247;BME280;16272;48.188;9.964;2023-03-24T11:12:32;95083.38;;;14.14;70.32
29247;BME280;16272;48.188;9.964;2023-03-24T11:15:19;95104.09;;;14.33;69.38
29247;BME280;16272;48.188;9.964;2023-03-24T11:18:16;95089.41;;;13.79;67.72
29247;BME280;16272;48.188;9.964;2023-03-24T11:20:44;95104.31;;;14.10;67.01
29247;BME280;16272;48.188;9.964;2023-03-24T11:23:19;95123.78;;;13.89;67.51
29247;BME280;16272;48.188;9.964;2023-03-24T11:25:51;95116.59;;;13.53;68.73
29247;BME280;16272;48.188;9.964;2023-03-24T11:28:22;95126.94;;;13.41;69.06
29247;BME280;16272;48.188;9.964;2023-03-24T11:30:52;95134.53;;;13.59;68.78
29247;BME280;16272;48.188;9.964;2023-03-24T11:35:50;95136.63;;;13.64;69.29
29247;BME280;16272;48.188;9.964;2023-03-24T11:38:16;95131.03;;;13.29;70.38
29247;BME280;16272;48.188;9.964;2023-03-24T11:40:52;95124.69;;;13.60;68.74
29247;BME280;16272;48.188;9.964;2023-03-24T11:43:19;95129.19;;;13.30;70.93
29247;BME280;16272;48.188;9.964;2023-03-24T11:45:55;95115.31;;;13.04;71.88
29247;BME280;16272;48.188;9.964;2023-03-24T11:48:49;95086.16;;;12.58;73.44
29247;BME280;16272;48.188;9.964;2023-03-24T11:51:33;95066.25;;;12.31;73.96
29247;BME280;16272;48.188;9.964;2023-03-24T11:54:02;95066.16;;;12.24;73.55
29247;BME280;16272;48.188;9.964;2023-03-24T11:56:44;95063.03;;;12.21;75.74
29247;BME280;16272;48.188;9.964;2023-03-24T12:01:59;95095.25;;;12.26;75.43
29247;BME280;16272;48.188;9.964;2023-03-24T12:04:37;95107.25;;;12.07;75.79
29247;BME280;16272;48.188;9.964;2023-03-24T12:07:42;95093.97;;;12.22;75.88
29247;BME280;16272;48.188;9.964;2023-03-24T12:13:11;95067.66;;;11.81;75.84
29247;BME280;16272;48.188;9.964;2023-03-24T12:18:35;95083.09;;;12.08;75.78
29247;BME280;16272;48.188;9.964;2023-03-24T12:21:28;95080.31;;;12.25;75.28
29247;BME280;16272;48.188;9.964;2023-03-24T12:26:43;95099.41;;;12.66;72.89
29247;BME280;16272;48.188;9.964;2023-03-24T12:29:38;95105.66;;;12.88;72.47
29247;BME280;16272;48.188;9.964;2023-03-24T12:32:24;95094.91;;;12.82;73.57
29247;BME280;16272;48.188;9.964;2023-03-24T12:44:26;95067.16;;;12.91;71.46
29247;BME280;16272;48.188;9.964;2023-03-24T12:46:51;95067.97;;;12.47;72.44
29247;BME280;16272;48.188;9.964;2023-03-24T12:52:10;95083.69;;;12.72;71.41
29247;BME280;16272;48.188;9.964;2023-03-24T12:55:00;95086.25;;;12.65;71.89
29247;BME280;16272;48.188;9.964;2023-03-24T12:57:32;95071.69;;;12.38;69.77
29247;BME280;16272;48.188;9.964;2023-03-24T13:00:06;95077.25;;;12.51;68.64
29247;BME280;16272;48.188;9.964;2023-03-24T13:02:47;95091.09;;;12.46;70.20
29247;BME280;16272;48.188;9.964;2023-03-24T13:05:23;95086.38;;;12.34;69.58
29247;BME280;16272;48.188;9.964;2023-03-24T13:07:54;95086.75;;;12.30;71.16
29247;BME280;16272;48.188;9.964;2023-03-24T13:10:27;95093.63;;;12.25;69.82
29247;BME280;16272;48.188;9.964;2023-03-24T13:15:57;95067.91;;;11.94;73.74
29247;BME280;16272;48.188;9.964;2023-03-24T13:21:10;95084.19;;;11.91;74.81
29247;BME280;16272;48.188;9.964;2023-03-24T13:28:58;95077.50;;;11.72;74.56
29247;BME280;16272;48.188;9.964;2023-03-24T13:31:29;95076.84;;;12.01;73.61
29247;BME280;16272;48.188;9.964;2023-03-24T13:33:57;95051.13;;;11.85;71.40
29247;BME280;16272;48.188;9.964;2023-03-24T13:36:47;95068.22;;;11.99;72.30
29247;BME280;16272;48.188;9.964;2023-03-24T13:39:18;95064.97;;;12.27;72.10
29247;BME280;16272;48.188;9.964;2023-03-24T13:41:51;95057.22;;;12.85;71.37
29247;BME280;16272;48.188;9.964;2023-03-24T13:44:19;95048.72;;;13.26;68.88
29247;BME280;16272;48.188;9.964;2023-03-24T13:47:12;95057.41;;;12.98;71.76
29247;BME280;16272;48.188;9.964;2023-03-24T13:49:40;95061.19;;;12.74;72.74
29247;BME280;16272;48.188;9.964;2023-03-24T13:52:22;95054.75;;;12.83;71.61
29247;BME280;16272;48.188;9.964;2023-03-24T13:54:55;95045.47;;;12.64;70.56
29247;BME280;16272;48.188;9.964;2023-03-24T13:57:23;95047.09;;;12.95;71.40
29247;BME280;16272;48.188;9.964;2023-03-24T14:00:21;95067.34;;;12.90;71.36
29247;BME280;16272;48.188;9.964;2023-03-24T14:02:51;95058.97;;;12.63;70.85
29247;BME280;16272;48.188;9.964;2023-03-24T14:08:13;95063.91;;;12.13;72.71
29247;BME280;16272;48.188;9.964;2023-03-24T14:10:43;95085.75;;;12.08;71.35
29247;BME280;16272;48.188;9.964;2023-03-24T14:15:51;95088.97;;;12.04;72.14
29247;BME280;16272;48.188;9.964;2023-03-24T14:23:39;95104.53;;;11.84;72.84
29247;BME280;16272;48.188;9.964;2023-03-24T14:26:11;95107.19;;;11.84;73.29
29247;BME280;16272;48.188;9.964;2023-03-24T14:28:41;95110.69;;;11.84;72.69
29247;BME280;16272;48.188;9.964;2023-03-24T14:36:09;95102.69;;;11.61;73.00
29247;BME280;16272;48.188;9.964;2023-03-24T14:38:43;95112.53;;;11.52;74.43
29247;BME280;16272;48.188;9.964;2023-03-24T14:41:14;95101.66;;;11.31;75.25
29247;BME280;16272;48.188;9.964;2023-03-24T14:53:02;95097.16;;;10.92;78.14
29247;BME280;16272;48.188;9.964;2023-03-24T14:55:02;95102.47;;;10.92;78.49
29247;BME280;16272;48.188;9.964;2023-03-24T14:57:33;95111.53;;;11.14;79.31
29247;BME280;16272;48.188;9.964;2023-03-24T15:00:07;95119.31;;;11.24;79.67
29247;BME280;16272;48.188;9.964;2023-03-24T15:02:57;95115.25;;;10.96;80.73
29247;BME280;16272;48.188;9.964;2023-03-24T15:05:29;95115.78;;;10.83;80.96
29247;BME280;16272;48.188;9.964;2023-03-24T15:08:11;95114.19;;;10.50;81.83